Time;durP1;ratioP1;P1;durP2;ratioP2;P2;SDS_P1;SDS_P2;PMS_P1;PMS_P2;Temp;Humidity;BMP_temperature;BMP_pressure;BME280_temperature;BME280_humidity;BME280_pressure;Samples;Min_cycle;Max_cycle;Signal;HPM_P1;HPM_P2
2022/11/07 00:00:34;;;;;;;54.80;45.17;;;;;;;;;;5081327;28;20556;-72
2022/11/07 00:02:59;;;;;;;52.47;43.20;;;;;;;;;;5080461;28;20036;-73
2022/11/07 00:05:24;;;;;;;82.63;64.88;;;;;;;;;;5080759;28;20042;-73
2022/11/07 00:07:50;;;;;;;96.93;75.50;;;;;;;;;;5081078;28;20043;-73
2022/11/07 00:10:15;;;;;;;76.15;60.03;;;;;;;;;;5074504;28;20031;-72
2022/11/07 00:12:40;;;;;;;79.30;58.40;;;;;;;;;;5073755;28;20024;-72
2022/11/07 00:15:06;;;;;;;55.90;44.30;;;;;;;;;;5081897;28;20111;-73
2022/11/07 00:17:31;;;;;;;54.42;43.67;;;;;;;;;;5081462;28;20039;-75
2022/11/07 00:19:57;;;;;;;55.67;46.92;;;;;;;;;;5071749;28;20032;-72
2022/11/07 00:22:22;;;;;;;56.92;45.97;;;;;;;;;;5078783;28;20020;-77
2022/11/07 00:24:47;;;;;;;50.13;44.45;;;;;;;;;;5079610;28;20032;-73
2022/11/07 00:27:13;;;;;;;50.17;43.10;;;;;;;;;;5067963;28;20055;-72
2022/11/07 00:29:38;;;;;;;52.65;44.50;;;;;;;;;;5081858;28;20039;-72
2022/11/07 00:32:03;;;;;;;55.65;46.72;;;;;;;;;;5069936;28;20028;-72
2022/11/07 00:34:29;;;;;;;58.55;48.92;;;;;;;;;;5077987;28;20031;-76
2022/11/07 00:36:54;;;;;;;52.25;43.28;;;;;;;;;;5081152;28;20453;-73
2022/11/07 00:39:19;;;;;;;49.70;43.17;;;;;;;;;;5079955;28;20454;-73
2022/11/07 00:41:48;;;;;;;49.60;43.97;;;;;;;;;;5073954;28;20454;-73
2022/11/07 00:44:13;;;;;;;51.95;44.33;;;;;;;;;;5077363;28;20102;-73
2022/11/07 00:46:39;;;;;;;46.95;41.00;;;;;;;;;;5084610;28;20024;-72
2022/11/07 00:49:04;;;;;;;75.78;55.95;;;;;;;;;;5085186;28;20024;-72
2022/11/07 00:51:29;;;;;;;73.03;53.92;;;;;;;;;;5086138;28;20320;-72
2022/11/07 00:53:55;;;;;;;84.45;61.60;;;;;;;;;;5083358;28;20036;-75
2022/11/07 00:56:22;;;;;;;74.07;59.05;;;;;;;;;;5084552;28;20070;-74
2022/11/07 00:58:47;;;;;;;73.43;56.58;;;;;;;;;;5083595;28;20036;-75
2022/11/07 01:01:14;;;;;;;72.78;57.50;;;;;;;;;;5079072;28;20070;-75
2022/11/07 01:06:25;;;;;;;78.53;65.57;;;;;;;;;;5083675;28;20470;-76
2022/11/07 01:08:52;;;;;;;71.28;58.05;;;;;;;;;;5084545;28;20047;-74
2022/11/07 01:11:17;;;;;;;76.25;62.70;;;;;;;;;;5082999;28;20024;-74
2022/11/07 01:13:43;;;;;;;66.15;54.78;;;;;;;;;;5083988;28;20039;-74
2022/11/07 01:16:08;;;;;;;74.25;58.58;;;;;;;;;;5071909;28;20020;-74
2022/11/07 01:18:34;;;;;;;85.35;68.50;;;;;;;;;;5070206;28;20134;-73
2022/11/07 01:21:02;;;;;;;74.63;59.47;;;;;;;;;;5082491;28;20035;-75
2022/11/07 01:23:27;;;;;;;70.93;55.83;;;;;;;;;;5082465;28;20035;-74
2022/11/07 01:25:53;;;;;;;68.10;57.35;;;;;;;;;;5082440;28;20032;-74
2022/11/07 01:28:18;;;;;;;65.78;56.97;;;;;;;;;;5083622;28;20046;-74
2022/11/07 01:30:44;;;;;;;115.90;88.75;;;;;;;;;;5082808;28;20036;-76
2022/11/07 01:33:09;;;;;;;77.97;63.47;;;;;;;;;;5069060;28;20020;-75
2022/11/07 01:35:35;;;;;;;86.38;65.78;;;;;;;;;;5081461;28;20081;-75
2022/11/07 01:38:01;;;;;;;91.30;69.18;;;;;;;;;;5071958;28;20020;-73
2022/11/07 01:40:27;;;;;;;67.43;54.58;;;;;;;;;;5084045;28;20028;-74
2022/11/07 01:42:53;;;;;;;60.40;46.85;;;;;;;;;;5083049;28;20028;-73
2022/11/07 01:45:21;;;;;;;53.17;44.08;;;;;;;;;;5082113;28;20024;-75
2022/11/07 01:47:47;;;;;;;60.03;47.60;;;;;;;;;;5070224;28;20094;-72
2022/11/07 01:50:12;;;;;;;52.28;45.30;;;;;;;;;;5077519;28;20060;-72
2022/11/07 01:52:40;;;;;;;42.88;36.10;;;;;;;;;;5065063;28;20459;-72
2022/11/07 01:55:11;;;;;;;41.70;36.22;;;;;;;;;;5084352;28;20031;-74
2022/11/07 01:57:36;;;;;;;47.45;41.33;;;;;;;;;;5082105;28;20032;-73
2022/11/07 02:00:04;;;;;;;42.53;36.00;;;;;;;;;;5083909;28;20020;-73
2022/11/07 02:02:30;;;;;;;51.13;40.95;;;;;;;;;;5084298;28;20020;-73
2022/11/07 02:04:56;;;;;;;56.63;46.75;;;;;;;;;;5084069;28;20075;-75
2022/11/07 02:07:22;;;;;;;44.38;39.58;;;;;;;;;;5084267;28;20031;-73
2022/11/07 02:09:49;;;;;;;44.13;37.60;;;;;;;;;;5083947;28;20020;-72
2022/11/07 02:12:16;;;;;;;45.35;40.05;;;;;;;;;;5084370;28;20063;-74
2022/11/07 02:14:42;;;;;;;42.92;38.53;;;;;;;;;;5068889;28;20377;-77
2022/11/07 02:17:08;;;;;;;45.13;39.10;;;;;;;;;;5076885;28;20471;-74
2022/11/07 02:19:43;;;;;;;42.05;37.53;;;;;;;;;;5067929;28;20107;-74
2022/11/07 02:22:12;;;;;;;49.53;40.60;;;;;;;;;;5076010;28;20564;-73
2022/11/07 02:24:37;;;;;;;47.85;40.42;;;;;;;;;;5082822;28;20027;-75
2022/11/07 02:27:06;;;;;;;46.60;41.17;;;;;;;;;;5083287;28;20042;-72
2022/11/07 02:29:32;;;;;;;50.72;41.90;;;;;;;;;;5083620;28;20051;-73
2022/11/07 02:32:01;;;;;;;53.42;46.65;;;;;;;;;;5082764;28;20336;-73
2022/11/07 02:34:27;;;;;;;56.13;47.05;;;;;;;;;;5081813;28;20028;-72
2022/11/07 02:36:52;;;;;;;55.40;46.95;;;;;;;;;;5083056;28;20434;-73
2022/11/07 02:39:17;;;;;;;50.20;44.63;;;;;;;;;;5083558;28;20020;-72
2022/11/07 02:41:43;;;;;;;55.47;44.97;;;;;;;;;;5083020;28;20528;-74
2022/11/07 02:44:10;;;;;;;45.97;40.92;;;;;;;;;;5075388;28;20453;-73
2022/11/07 02:46:35;;;;;;;44.65;39.60;;;;;;;;;;5077814;28;20089;-76
2022/11/07 02:49:00;;;;;;;39.33;34.30;;;;;;;;;;5082772;28;20024;-73
2022/11/07 02:51:26;;;;;;;44.05;38.92;;;;;;;;;;5082105;28;21021;-73
2022/11/07 02:53:51;;;;;;;42.60;36.45;;;;;;;;;;5082175;28;20024;-73
2022/11/07 02:56:17;;;;;;;40.95;33.35;;;;;;;;;;5076777;28;20455;-75
2022/11/07 02:58:43;;;;;;;36.60;32.55;;;;;;;;;;5083706;28;20103;-74
2022/11/07 03:01:08;;;;;;;40.13;36.08;;;;;;;;;;5082746;28;20028;-76
2022/11/07 03:03:34;;;;;;;46.42;38.88;;;;;;;;;;5082442;28;20448;-74
2022/11/07 03:06:00;;;;;;;40.95;35.65;;;;;;;;;;5082887;28;20089;-73
2022/11/07 03:08:25;;;;;;;41.40;37.00;;;;;;;;;;5082452;28;20035;-74
2022/11/07 03:10:50;;;;;;;45.88;41.15;;;;;;;;;;5082889;28;20020;-73
2022/11/07 03:13:15;;;;;;;49.97;41.28;;;;;;;;;;5081330;28;20036;-73
2022/11/07 03:15:41;;;;;;;50.38;42.33;;;;;;;;;;5082286;28;20032;-72
2022/11/07 03:18:06;;;;;;;46.10;40.20;;;;;;;;;;5083014;28;20048;-73
2022/11/07 03:20:31;;;;;;;44.28;38.42;;;;;;;;;;5083143;28;20028;-73
2022/11/07 03:22:57;;;;;;;44.60;37.83;;;;;;;;;;5082841;28;20028;-74
2022/11/07 03:25:22;;;;;;;47.38;42.20;;;;;;;;;;5082006;28;20031;-75
2022/11/07 03:27:48;;;;;;;47.92;41.15;;;;;;;;;;5082744;28;20039;-74
2022/11/07 03:30:13;;;;;;;47.97;41.38;;;;;;;;;;5082267;28;20027;-75
2022/11/07 03:32:39;;;;;;;49.33;41.60;;;;;;;;;;5082991;28;20427;-74
2022/11/07 03:35:04;;;;;;;46.22;40.88;;;;;;;;;;5081996;28;20042;-76
2022/11/07 03:37:30;;;;;;;47.88;40.78;;;;;;;;;;5082436;28;20024;-73
2022/11/07 03:39:55;;;;;;;47.47;42.25;;;;;;;;;;5082368;28;20402;-72
2022/11/07 03:42:20;;;;;;;47.00;41.42;;;;;;;;;;5082311;28;20499;-73
2022/11/07 03:44:46;;;;;;;187.63;101.60;;;;;;;;;;5079363;28;20090;-76
2022/11/07 03:47:11;;;;;;;200.63;114.63;;;;;;;;;;5069895;28;20031;-73
2022/11/07 03:49:36;;;;;;;202.40;110.40;;;;;;;;;;5081161;28;20032;-73
2022/11/07 03:52:02;;;;;;;131.57;79.10;;;;;;;;;;5071369;28;20024;-73
2022/11/07 03:54:27;;;;;;;83.72;60.83;;;;;;;;;;5079868;28;20024;-76
2022/11/07 03:56:52;;;;;;;64.18;50.75;;;;;;;;;;5081963;28;20036;-76
2022/11/07 03:59:18;;;;;;;82.80;61.03;;;;;;;;;;5081482;28;20035;-74
2022/11/07 04:01:44;;;;;;;70.68;55.75;;;;;;;;;;5081814;28;20024;-73
2022/11/07 04:04:09;;;;;;;85.60;67.95;;;;;;;;;;5081694;28;20023;-73
2022/11/07 04:06:35;;;;;;;87.47;66.20;;;;;;;;;;5081885;28;20024;-73
2022/11/07 04:09:00;;;;;;;82.68;62.33;;;;;;;;;;5082250;28;20328;-75
2022/11/07 04:19:37;;;;;;;62.25;50.28;;;;;;;;;;5084605;28;20702;-73
2022/11/07 04:22:02;;;;;;;60.92;50.85;;;;;;;;;;5085228;28;20020;-74
2022/11/07 04:24:28;;;;;;;60.47;52.35;;;;;;;;;;5086042;28;20362;-73
2022/11/07 04:29:37;;;;;;;51.08;43.88;;;;;;;;;;5085108;28;20040;-76
2022/11/07 04:32:02;;;;;;;57.90;47.05;;;;;;;;;;5085441;28;20024;-76
2022/11/07 04:34:28;;;;;;;48.47;43.00;;;;;;;;;;5086152;28;20028;-77
2022/11/07 04:36:53;;;;;;;49.67;41.80;;;;;;;;;;5084622;28;20499;-74
2022/11/07 04:39:18;;;;;;;51.17;45.40;;;;;;;;;;5084687;28;20024;-73
2022/11/07 04:41:44;;;;;;;48.35;42.90;;;;;;;;;;5085484;28;20129;-75
2022/11/07 04:44:09;;;;;;;50.92;43.92;;;;;;;;;;5077792;28;20064;-72
2022/11/07 04:46:34;;;;;;;55.15;45.78;;;;;;;;;;5068605;28;20099;-72
2022/11/07 04:48:59;;;;;;;51.97;44.25;;;;;;;;;;5083633;28;20116;-72
2022/11/07 04:51:25;;;;;;;61.88;51.33;;;;;;;;;;5084154;28;20075;-73
2022/11/07 04:53:50;;;;;;;63.17;50.90;;;;;;;;;;5084664;28;20051;-73
2022/11/07 04:56:16;;;;;;;61.45;50.38;;;;;;;;;;5084601;28;20439;-73
2022/11/07 04:58:41;;;;;;;63.75;53.35;;;;;;;;;;5085615;28;21060;-74
2022/11/07 05:01:06;;;;;;;57.20;48.63;;;;;;;;;;5082199;28;20028;-74
2022/11/07 05:03:32;;;;;;;62.33;54.67;;;;;;;;;;5084381;28;20024;-77
2022/11/07 05:05:57;;;;;;;56.42;48.72;;;;;;;;;;5077577;28;20102;-74
2022/11/07 05:08:22;;;;;;;59.58;52.67;;;;;;;;;;5065668;28;20125;-74
2022/11/07 05:10:48;;;;;;;64.82;54.65;;;;;;;;;;5070173;28;20028;-72
2022/11/07 05:13:13;;;;;;;71.07;59.38;;;;;;;;;;5067845;28;20403;-73
2022/11/07 05:15:39;;;;;;;91.13;56.70;;;;;;;;;;5069539;28;20507;-73
2022/11/07 05:18:04;;;;;;;88.47;60.20;;;;;;;;;;5083519;28;20123;-74
2022/11/07 05:20:31;;;;;;;111.15;75.47;;;;;;;;;;5082996;28;20027;-76
2022/11/07 05:23:12;;;;;;;91.82;65.90;;;;;;;;;;5076646;28;20031;-73
2022/11/07 05:25:38;;;;;;;82.22;63.72;;;;;;;;;;5081684;28;20024;-77
2022/11/07 05:28:04;;;;;;;89.10;66.93;;;;;;;;;;5080921;28;20032;-73
2022/11/07 05:30:29;;;;;;;89.07;68.80;;;;;;;;;;5083699;28;20091;-73
2022/11/07 05:32:54;;;;;;;182.02;144.73;;;;;;;;;;5072044;28;20043;-77
2022/11/07 05:35:20;;;;;;;122.95;98.45;;;;;;;;;;5083095;28;20020;-75
2022/11/07 05:37:47;;;;;;;99.85;72.35;;;;;;;;;;5078548;28;20336;-71
2022/11/07 05:40:12;;;;;;;89.50;64.10;;;;;;;;;;5070415;28;20032;-72
2022/11/07 05:42:38;;;;;;;82.05;59.58;;;;;;;;;;5078853;28;20031;-76
2022/11/07 05:45:03;;;;;;;90.88;66.07;;;;;;;;;;5083933;28;20035;-74
2022/11/07 05:47:29;;;;;;;90.57;73.38;;;;;;;;;;5084097;28;20027;-75
2022/11/07 05:49:54;;;;;;;172.10;142.25;;;;;;;;;;5084755;28;20036;-75
2022/11/07 05:52:19;;;;;;;264.35;218.32;;;;;;;;;;5084496;28;20032;-74
2022/11/07 05:54:44;;;;;;;181.40;128.18;;;;;;;;;;5083233;28;20024;-73
2022/11/07 05:57:10;;;;;;;156.65;111.85;;;;;;;;;;5084548;28;20046;-75
2022/11/07 05:59:35;;;;;;;157.68;119.90;;;;;;;;;;5081773;28;20039;-73
2022/11/07 06:02:00;;;;;;;171.90;137.13;;;;;;;;;;5084245;28;20101;-73
2022/11/07 06:04:26;;;;;;;213.60;175.10;;;;;;;;;;5070905;28;20027;-77
2022/11/07 06:06:51;;;;;;;194.45;173.13;;;;;;;;;;5070430;28;20351;-76
2022/11/07 06:09:16;;;;;;;121.43;96.10;;;;;;;;;;5069335;28;20468;-74
2022/11/07 06:11:42;;;;;;;101.22;80.20;;;;;;;;;;5078798;28;20440;-78
2022/11/07 06:14:07;;;;;;;68.13;58.05;;;;;;;;;;5082662;28;20033;-76
2022/11/07 06:16:32;;;;;;;62.67;51.13;;;;;;;;;;5082323;28;20446;-72
2022/11/07 06:18:58;;;;;;;54.60;47.50;;;;;;;;;;5082497;28;20043;-75
2022/11/07 06:21:23;;;;;;;58.03;49.10;;;;;;;;;;5083777;28;20099;-74
2022/11/07 06:23:48;;;;;;;57.67;48.05;;;;;;;;;;5080109;28;20154;-75
2022/11/07 06:26:14;;;;;;;64.22;56.72;;;;;;;;;;5082862;28;20110;-74
2022/11/07 06:28:39;;;;;;;70.47;60.35;;;;;;;;;;5082343;28;20032;-73
2022/11/07 06:31:04;;;;;;;82.63;70.38;;;;;;;;;;5083058;28;20695;-75
2022/11/07 06:33:30;;;;;;;83.05;71.30;;;;;;;;;;5082575;28;20431;-75
2022/11/07 06:36:03;;;;;;;123.22;109.88;;;;;;;;;;5082185;28;20032;-72
2022/11/07 06:38:28;;;;;;;123.80;105.80;;;;;;;;;;5078742;28;20450;-74
2022/11/07 06:40:53;;;;;;;119.55;106.13;;;;;;;;;;5054568;28;20024;-76
2022/11/07 06:43:19;;;;;;;161.40;125.05;;;;;;;;;;5083255;28;20024;-75
2022/11/07 06:45:44;;;;;;;106.65;88.88;;;;;;;;;;5081626;28;20028;-77
2022/11/07 06:48:10;;;;;;;96.13;81.35;;;;;;;;;;5068760;28;20035;-75
2022/11/07 06:50:35;;;;;;;100.18;86.95;;;;;;;;;;5073130;28;20454;-76
2022/11/07 06:53:01;;;;;;;117.93;99.72;;;;;;;;;;5070311;28;20343;-75
2022/11/07 06:55:27;;;;;;;89.50;78.72;;;;;;;;;;5077265;28;20131;-76
2022/11/07 06:57:56;;;;;;;96.47;83.70;;;;;;;;;;5070284;28;20111;-74
2022/11/07 07:00:21;;;;;;;134.80;120.00;;;;;;;;;;5081163;28;20028;-76
2022/11/07 07:02:47;;;;;;;110.47;94.03;;;;;;;;;;5070758;28;20031;-75
2022/11/07 07:05:12;;;;;;;202.00;147.13;;;;;;;;;;5077320;28;20028;-75
2022/11/07 07:07:37;;;;;;;136.15;110.07;;;;;;;;;;5068595;28;20371;-74
2022/11/07 07:10:03;;;;;;;93.70;83.30;;;;;;;;;;5067633;28;20436;-74
2022/11/07 07:12:28;;;;;;;118.07;104.65;;;;;;;;;;5078280;28;21086;-75
2022/11/07 07:14:53;;;;;;;95.97;85.63;;;;;;;;;;5082194;28;20173;-72
2022/11/07 07:17:18;;;;;;;127.47;113.72;;;;;;;;;;5080872;28;20420;-73
2022/11/07 07:19:44;;;;;;;100.85;89.85;;;;;;;;;;5079737;28;20484;-72
2022/11/07 07:22:12;;;;;;;93.10;80.65;;;;;;;;;;5078944;28;20034;-73
2022/11/07 07:24:38;;;;;;;78.85;70.28;;;;;;;;;;5067852;28;20028;-71
2022/11/07 07:27:03;;;;;;;82.80;70.75;;;;;;;;;;5067561;28;20028;-71
2022/11/07 07:29:29;;;;;;;158.25;108.07;;;;;;;;;;5071861;28;20036;-72
2022/11/07 07:31:54;;;;;;;87.90;65.47;;;;;;;;;;5070513;28;20099;-72
2022/11/07 07:34:19;;;;;;;72.53;61.38;;;;;;;;;;5070841;28;20024;-72
2022/11/07 07:36:45;;;;;;;74.93;62.28;;;;;;;;;;5072026;28;20075;-75
2022/11/07 07:39:10;;;;;;;63.08;56.17;;;;;;;;;;5071943;28;20467;-72
2022/11/07 07:41:35;;;;;;;82.43;73.07;;;;;;;;;;5067421;28;20028;-71
2022/11/07 07:44:01;;;;;;;63.78;56.03;;;;;;;;;;5075369;28;20111;-74
2022/11/07 07:46:26;;;;;;;66.88;53.75;;;;;;;;;;5068285;28;20028;-73
2022/11/07 07:48:51;;;;;;;64.00;54.05;;;;;;;;;;5063877;28;20088;-70
2022/11/07 07:51:17;;;;;;;57.97;49.50;;;;;;;;;;5066692;28;20070;-71
2022/11/07 07:53:42;;;;;;;60.08;49.42;;;;;;;;;;5068233;28;20635;-72
2022/11/07 07:56:07;;;;;;;81.50;60.92;;;;;;;;;;5068634;28;20110;-71
2022/11/07 07:58:33;;;;;;;104.10;76.80;;;;;;;;;;5066445;28;20021;-72
2022/11/07 08:00:58;;;;;;;60.63;52.60;;;;;;;;;;5069618;28;20337;-71
2022/11/07 08:03:24;;;;;;;52.63;45.03;;;;;;;;;;5067951;28;20031;-71
2022/11/07 08:05:53;;;;;;;60.30;48.75;;;;;;;;;;5067623;28;20526;-74
2022/11/07 08:08:19;;;;;;;59.38;46.22;;;;;;;;;;5067158;28;20141;-72
2022/11/07 08:10:44;;;;;;;58.03;45.85;;;;;;;;;;5067000;28;20439;-74
2022/11/07 08:13:10;;;;;;;57.65;45.47;;;;;;;;;;5067552;28;20423;-74
2022/11/07 08:15:35;;;;;;;70.50;53.88;;;;;;;;;;5067368;28;20371;-72
2022/11/07 08:18:01;;;;;;;78.10;59.80;;;;;;;;;;5067373;28;20048;-71
2022/11/07 08:20:26;;;;;;;59.40;48.00;;;;;;;;;;5067775;28;20020;-72
2022/11/07 08:22:59;;;;;;;67.30;54.92;;;;;;;;;;5067474;28;20517;-72
2022/11/07 08:25:24;;;;;;;82.00;56.90;;;;;;;;;;5067354;28;20016;-72
2022/11/07 08:27:51;;;;;;;112.03;78.78;;;;;;;;;;5067651;28;20084;-72
2022/11/07 08:30:16;;;;;;;75.75;55.38;;;;;;;;;;5067597;28;20194;-73
2022/11/07 08:32:42;;;;;;;74.38;54.10;;;;;;;;;;5066422;28;20036;-71
2022/11/07 08:35:07;;;;;;;61.30;45.95;;;;;;;;;;5067576;28;20028;-72
2022/11/07 08:37:33;;;;;;;65.13;46.22;;;;;;;;;;5067138;28;20081;-73
2022/11/07 08:39:58;;;;;;;56.22;45.15;;;;;;;;;;5067840;28;20028;-72
2022/11/07 08:42:23;;;;;;;54.53;43.65;;;;;;;;;;5048291;28;20020;-72
2022/11/07 08:44:49;;;;;;;67.18;51.97;;;;;;;;;;5067420;28;20032;-73
2022/11/07 08:47:14;;;;;;;66.40;50.45;;;;;;;;;;5067590;28;20032;-72
2022/11/07 08:49:40;;;;;;;70.72;53.35;;;;;;;;;;5067800;28;20036;-75
2022/11/07 08:52:05;;;;;;;91.03;67.32;;;;;;;;;;5067532;28;20446;-74
2022/11/07 08:54:31;;;;;;;63.38;52.05;;;;;;;;;;5068913;28;20040;-72
2022/11/07 08:56:56;;;;;;;53.15;44.95;;;;;;;;;;5067829;28;20032;-72
2022/11/07 08:59:22;;;;;;;73.03;56.08;;;;;;;;;;5075380;28;20028;-72
2022/11/07 09:01:47;;;;;;;111.25;80.85;;;;;;;;;;5067843;28;20028;-72
2022/11/07 09:04:12;;;;;;;62.83;53.22;;;;;;;;;;5070177;28;20016;-76
2022/11/07 09:06:38;;;;;;;66.07;57.45;;;;;;;;;;5070590;28;20016;-72
2022/11/07 09:09:03;;;;;;;66.00;54.67;;;;;;;;;;5071078;28;20036;-75
2022/11/07 09:11:28;;;;;;;78.63;67.13;;;;;;;;;;5081245;28;20411;-72
2022/11/07 09:13:54;;;;;;;87.30;66.63;;;;;;;;;;5082875;28;20036;-76
2022/11/07 09:16:20;;;;;;;71.63;62.67;;;;;;;;;;5082736;28;20024;-73
2022/11/07 09:18:46;;;;;;;52.42;45.78;;;;;;;;;;5083984;28;20058;-71
2022/11/07 09:21:12;;;;;;;54.15;45.30;;;;;;;;;;5082665;28;20115;-71
2022/11/07 09:23:37;;;;;;;55.60;49.22;;;;;;;;;;5080621;28;20015;-70
2022/11/07 09:26:03;;;;;;;53.28;43.65;;;;;;;;;;5073546;28;20031;-76
2022/11/07 09:28:28;;;;;;;43.38;38.72;;;;;;;;;;5073148;28;20481;-73
2022/11/07 09:30:55;;;;;;;47.58;39.63;;;;;;;;;;5074217;28;20031;-72
2022/11/07 09:33:20;;;;;;;41.65;37.13;;;;;;;;;;5084217;28;20024;-72
2022/11/07 09:35:46;;;;;;;36.60;32.65;;;;;;;;;;5083716;28;20109;-72
2022/11/07 09:38:13;;;;;;;36.00;30.88;;;;;;;;;;5083522;28;20097;-71
2022/11/07 09:40:48;;;;;;;35.35;29.83;;;;;;;;;;5082741;28;20053;-71
2022/11/07 09:43:13;;;;;;;35.42;31.25;;;;;;;;;;5076771;28;20363;-73
2022/11/07 09:45:59;;;;;;;36.40;32.50;;;;;;;;;;5072021;28;20020;-75
2022/11/07 09:48:26;;;;;;;34.90;30.45;;;;;;;;;;5076557;28;20036;-73
2022/11/07 09:50:52;;;;;;;34.25;30.02;;;;;;;;;;5078627;28;20020;-73
2022/11/07 09:53:17;;;;;;;35.85;29.40;;;;;;;;;;5083662;28;20427;-72
2022/11/07 09:55:54;;;;;;;32.92;28.38;;;;;;;;;;5082720;28;20030;-73
2022/11/07 09:58:24;;;;;;;37.63;33.33;;;;;;;;;;5071681;28;20102;-74
2022/11/07 10:00:50;;;;;;;36.00;31.70;;;;;;;;;;5069308;28;20327;-75
2022/11/07 10:03:16;;;;;;;34.17;30.67;;;;;;;;;;5069162;28;20435;-75
2022/11/07 10:05:57;;;;;;;49.75;44.35;;;;;;;;;;5070145;28;20103;-77
2022/11/07 10:08:25;;;;;;;121.60;89.72;;;;;;;;;;5070129;28;20058;-72
2022/11/07 10:10:56;;;;;;;39.53;30.65;;;;;;;;;;5069855;28;20028;-74
2022/11/07 10:13:27;;;;;;;29.17;24.67;;;;;;;;;;5068340;28;20082;-73
2022/11/07 10:16:14;;;;;;;27.60;24.48;;;;;;;;;;5070178;28;20549;-72
2022/11/07 10:18:54;;;;;;;74.95;48.60;;;;;;;;;;5073519;28;20056;-73
2022/11/07 10:21:33;;;;;;;36.92;27.23;;;;;;;;;;5069635;28;20036;-73
2022/11/07 10:23:58;;;;;;;25.42;22.75;;;;;;;;;;5067979;28;20044;-75
2022/11/07 10:26:24;;;;;;;23.80;20.95;;;;;;;;;;5068689;28;20070;-76
2022/11/07 10:29:13;;;;;;;22.55;19.58;;;;;;;;;;5069748;28;20020;-72
2022/11/07 10:31:54;;;;;;;23.50;20.63;;;;;;;;;;5061569;28;20160;-73
2022/11/07 10:34:46;;;;;;;23.55;18.98;;;;;;;;;;5070069;28;20103;-75
2022/11/07 10:37:12;;;;;;;22.42;20.02;;;;;;;;;;5066526;28;20040;-74
2022/11/07 10:39:38;;;;;;;27.95;18.58;;;;;;;;;;5071084;28;20454;-74
2022/11/07 10:42:12;;;;;;;23.38;20.42;;;;;;;;;;5052347;28;20024;-75
2022/11/07 10:44:39;;;;;;;24.73;19.45;;;;;;;;;;5069510;28;20111;-74
2022/11/07 10:47:14;;;;;;;22.35;19.88;;;;;;;;;;5068615;28;20028;-73
2022/11/07 10:49:39;;;;;;;25.65;19.00;;;;;;;;;;5068348;28;20032;-73
2022/11/07 10:52:23;;;;;;;25.45;20.60;;;;;;;;;;5069636;28;20020;-73
2022/11/07 10:54:49;;;;;;;23.33;20.75;;;;;;;;;;5072898;28;20039;-73
2022/11/07 10:57:15;;;;;;;23.48;20.90;;;;;;;;;;5075374;28;20020;-72
2022/11/07 10:59:59;;;;;;;22.60;20.23;;;;;;;;;;5068766;28;20511;-74
2022/11/07 11:02:27;;;;;;;24.00;21.40;;;;;;;;;;5081037;28;20027;-74
2022/11/07 11:04:53;;;;;;;25.10;22.55;;;;;;;;;;5080253;28;20031;-74
2022/11/07 11:07:19;;;;;;;22.58;20.42;;;;;;;;;;5071592;28;20036;-74
2022/11/07 11:10:08;;;;;;;29.10;22.85;;;;;;;;;;5082233;28;20038;-74
2022/11/07 11:12:33;;;;;;;23.47;20.67;;;;;;;;;;5080037;28;20028;-74
2022/11/07 11:15:09;;;;;;;27.42;20.30;;;;;;;;;;5081685;28;20089;-73
2022/11/07 11:17:34;;;;;;;30.15;21.85;;;;;;;;;;5082891;28;20048;-74
2022/11/07 11:20:00;;;;;;;25.90;22.48;;;;;;;;;;5080888;28;20114;-75
2022/11/07 11:22:27;;;;;;;29.33;22.92;;;;;;;;;;5081214;28;20024;-74
2022/11/07 11:25:07;;;;;;;33.60;26.60;;;;;;;;;;5082528;28;20024;-74
2022/11/07 11:27:33;;;;;;;23.00;20.58;;;;;;;;;;5082118;28;20038;-75
2022/11/07 11:30:01;;;;;;;25.67;22.92;;;;;;;;;;5081579;28;20032;-71
2022/11/07 11:32:30;;;;;;;29.77;22.58;;;;;;;;;;5081016;28;20034;-72
2022/11/07 11:34:55;;;;;;;28.40;22.98;;;;;;;;;;5082376;28;20115;-73
2022/11/07 11:37:26;;;;;;;25.95;23.25;;;;;;;;;;5082513;28;20115;-72
2022/11/07 11:39:58;;;;;;;33.65;24.33;;;;;;;;;;5082231;28;20034;-73
2022/11/07 11:42:27;;;;;;;34.92;25.85;;;;;;;;;;5081129;28;20027;-77
2022/11/07 11:44:55;;;;;;;29.90;24.40;;;;;;;;;;5082094;28;20024;-74
2022/11/07 11:47:23;;;;;;;27.05;23.58;;;;;;;;;;5080445;28;20040;-74
2022/11/07 11:49:51;;;;;;;27.13;24.23;;;;;;;;;;5081684;28;20050;-73
2022/11/07 11:52:18;;;;;;;38.08;31.67;;;;;;;;;;5081273;28;20027;-74
2022/11/07 11:54:44;;;;;;;46.90;41.33;;;;;;;;;;5080363;28;20036;-73
2022/11/07 11:57:20;;;;;;;54.75;43.88;;;;;;;;;;5081213;28;20031;-73
2022/11/07 12:00:04;;;;;;;139.20;87.22;;;;;;;;;;5082105;28;20034;-73
2022/11/07 12:02:44;;;;;;;143.13;99.32;;;;;;;;;;5081417;28;20024;-73
2022/11/07 12:05:28;;;;;;;72.72;55.67;;;;;;;;;;5079731;28;20032;-75
2022/11/07 12:07:53;;;;;;;38.17;33.47;;;;;;;;;;5081320;28;20049;-72
2022/11/07 12:10:28;;;;;;;46.17;40.88;;;;;;;;;;5081067;28;20023;-73
2022/11/07 12:13:01;;;;;;;44.08;36.67;;;;;;;;;;5081502;28;20443;-72
2022/11/07 12:15:27;;;;;;;49.58;35.15;;;;;;;;;;5079572;28;20026;-72
2022/11/07 12:18:12;;;;;;;45.72;40.92;;;;;;;;;;5071193;28;20048;-74
2022/11/07 12:20:38;;;;;;;28.92;25.75;;;;;;;;;;5056507;28;20040;-75
2022/11/07 12:23:03;;;;;;;43.75;39.10;;;;;;;;;;5073175;28;20035;-72
2022/11/07 12:25:31;;;;;;;50.08;44.80;;;;;;;;;;5080985;28;20103;-71
2022/11/07 12:28:17;;;;;;;38.63;32.60;;;;;;;;;;5080860;28;20034;-73
2022/11/07 12:30:51;;;;;;;33.85;30.25;;;;;;;;;;5079152;28;20337;-72
2022/11/07 12:33:27;;;;;;;31.23;24.02;;;;;;;;;;5080892;28;20035;-75
2022/11/07 12:35:56;;;;;;;26.08;23.33;;;;;;;;;;5081524;28;20589;-72
2022/11/07 12:38:24;;;;;;;48.70;43.35;;;;;;;;;;5083417;28;20028;-72
2022/11/07 12:40:55;;;;;;;35.20;30.50;;;;;;;;;;5084949;28;20083;-76
2022/11/07 12:43:33;;;;;;;34.17;28.05;;;;;;;;;;5084179;28;20027;-73
2022/11/07 12:45:58;;;;;;;28.98;25.75;;;;;;;;;;5084313;28;20065;-72
2022/11/07 12:48:26;;;;;;;39.70;31.30;;;;;;;;;;5085320;28;20028;-73
2022/11/07 12:50:54;;;;;;;30.17;26.27;;;;;;;;;;5085004;28;20071;-72
2022/11/07 12:53:20;;;;;;;29.58;24.63;;;;;;;;;;5077687;28;20050;-72
2022/11/07 12:55:48;;;;;;;39.60;29.65;;;;;;;;;;5074214;28;20438;-73
2022/11/07 12:58:21;;;;;;;46.47;30.17;;;;;;;;;;5054596;28;20402;-74
2022/11/07 13:00:47;;;;;;;30.08;26.17;;;;;;;;;;5084614;28;20085;-74
2022/11/07 13:03:21;;;;;;;30.25;25.30;;;;;;;;;;5085351;28;20043;-74
2022/11/07 13:05:59;;;;;;;35.22;24.55;;;;;;;;;;5084581;28;20119;-76
2022/11/07 13:08:48;;;;;;;30.23;24.20;;;;;;;;;;5085088;28;20032;-77
2022/11/07 13:11:16;;;;;;;28.70;22.77;;;;;;;;;;5075259;28;20083;-75
2022/11/07 13:13:53;;;;;;;29.15;24.05;;;;;;;;;;5083362;28;20036;-74
2022/11/07 13:16:33;;;;;;;30.63;23.95;;;;;;;;;;5084522;28;20040;-74
2022/11/07 13:19:24;;;;;;;49.13;25.45;;;;;;;;;;5084382;28;20048;-75
2022/11/07 13:21:57;;;;;;;34.13;25.63;;;;;;;;;;5085160;28;20359;-79
2022/11/07 13:24:22;;;;;;;28.67;24.75;;;;;;;;;;5083523;28;20435;-75
2022/11/07 13:26:47;;;;;;;33.78;27.80;;;;;;;;;;5083861;28;22555;-77
2022/11/07 13:29:22;;;;;;;34.45;30.55;;;;;;;;;;5083715;28;20773;-75
2022/11/07 13:31:52;;;;;;;31.02;26.48;;;;;;;;;;5084014;28;20339;-75
2022/11/07 13:34:17;;;;;;;29.70;26.58;;;;;;;;;;5084913;28;20153;-73
2022/11/07 13:36:43;;;;;;;32.47;28.65;;;;;;;;;;5084182;28;20107;-74
2022/11/07 13:39:10;;;;;;;47.90;43.30;;;;;;;;;;5082861;28;20093;-74
2022/11/07 13:41:35;;;;;;;31.83;28.50;;;;;;;;;;5084678;28;20066;-75
2022/11/07 13:44:04;;;;;;;30.40;25.20;;;;;;;;;;5082310;28;20420;-74
2022/11/07 13:46:31;;;;;;;31.00;26.80;;;;;;;;;;5082094;28;20471;-73
2022/11/07 13:48:58;;;;;;;34.10;30.13;;;;;;;;;;5084019;28;20275;-75
2022/11/07 13:51:32;;;;;;;34.55;28.55;;;;;;;;;;5084840;28;20028;-76
2022/11/07 13:54:00;;;;;;;30.10;26.38;;;;;;;;;;5084149;28;20435;-78
2022/11/07 13:56:44;;;;;;;29.98;26.20;;;;;;;;;;5084376;28;20038;-76
2022/11/07 13:59:13;;;;;;;30.15;25.27;;;;;;;;;;5083251;28;20058;-75
2022/11/07 14:01:42;;;;;;;27.67;24.42;;;;;;;;;;5081258;28;20020;-75
2022/11/07 14:04:27;;;;;;;31.13;26.17;;;;;;;;;;5068866;28;20032;-76
2022/11/07 14:06:57;;;;;;;46.95;34.38;;;;;;;;;;5078672;28;20028;-77
2022/11/07 14:09:23;;;;;;;33.47;28.92;;;;;;;;;;5070523;28;20028;-77
2022/11/07 14:11:50;;;;;;;50.38;40.40;;;;;;;;;;5071728;28;20392;-76
2022/11/07 14:14:16;;;;;;;74.90;53.15;;;;;;;;;;5082579;28;20491;-77
2022/11/07 14:16:43;;;;;;;43.60;34.80;;;;;;;;;;5084226;28;20027;-75
2022/11/07 14:19:13;;;;;;;40.10;33.30;;;;;;;;;;5084564;28;20048;-75
2022/11/07 14:21:42;;;;;;;47.53;35.63;;;;;;;;;;5083533;28;20024;-75
2022/11/07 14:24:22;;;;;;;47.50;33.95;;;;;;;;;;5082677;28;20015;-76
2022/11/07 14:27:02;;;;;;;31.40;26.92;;;;;;;;;;5075232;28;20036;-75
2022/11/07 14:29:28;;;;;;;39.45;27.58;;;;;;;;;;5082716;28;20024;-76